This is the latest recevied weather packets stored in our database for station/object SP6FIG-13. If no packets are shown the sender has not sent any weather packets the latest 10 day(s).
| Time | Temp. | Humidity | Pressure | Rain* | Wind** | Luminosity | Snow |
|---|---|---|---|---|---|---|---|
| 1777908566 | 23.89° C | 34% | 1012.5 hPa | - | - | - | - |
| 1777908266 | 23.89° C | 33% | 1012.7 hPa | - | - | - | - |
| 1777907966 | 23.89° C | 34% | 1012.6 hPa | - | - | - | - |
| 1777907666 | 23.89° C | 34% | 1012.7 hPa | - | - | - | - |
| 1777907366 | 23.89° C | 35% | 1012.5 hPa | - | - | - | - |
| 1777907066 | 23.89° C | 34% | 1012.6 hPa | - | - | - | - |
| 1777906766 | 23.89° C | 34% | 1012.7 hPa | - | - | - | - |
| 1777906466 | 23.89° C | 34% | 1013.1 hPa | - | - | - | - |
| 1777906166 | 24.44° C | 33% | 1012.1 hPa | - | - | - | - |
| 1777905866 | 23.89° C | 34% | 1012.9 hPa | - | - | - | - |
| 1777905565 | 23.89° C | 33% | 1013.1 hPa | - | - | - | - |
| 1777905266 | 24.44° C | 32% | 1012.2 hPa | - | - | - | - |
| 1777904966 | 23.89° C | 33% | 1012.7 hPa | - | - | - | - |
| 1777904666 | 23.89° C | 33% | 1012.5 hPa | - | - | - | - |
| 1777904366 | 23.89° C | 34% | 1013 hPa | - | - | - | - |
| 1777904066 | 23.89° C | 33% | 1012.4 hPa | - | - | - | - |
| 1777903766 | 23.89° C | 35% | 1013.1 hPa | - | - | - | - |
| 1777903466 | 23.89° C | 34% | 1013 hPa | - | - | - | - |
| 1777903165 | 23.89° C | 33% | 1012.8 hPa | - | - | - | - |
| 1777902866 | 23.89° C | 33% | 1013.2 hPa | - | - | - | - |
| 1777902566 | 24.44° C | 34% | 1012.7 hPa | - | - | - | - |
| 1777902266 | 24.44° C | 34% | 1013 hPa | - | - | - | - |
| 1777901966 | 24.44° C | 35% | 1013.2 hPa | - | - | - | - |
| 1777901665 | 24.44° C | 32% | 1012.3 hPa | - | - | - | - |
| 1777901366 | 23.89° C | 36% | 1012.7 hPa | - | - | - | - |
* Rain since midnight (hover to see other rain measurements)
** Current wind speed in m/s (hover to see current wind gust speed)